Time;durP1;ratioP1;P1;durP2;ratioP2;P2;SDS_P1;SDS_P2;PMS_P1;PMS_P2;Temp;Humidity;BMP_temperature;BMP_pressure;BME280_temperature;BME280_humidity;BME280_pressure;Samples;Min_cycle;Max_cycle;Signal;HPM_P1;HPM_P2
2021/01/04 00:01:58;;;;;;;13.82;7.47;;;5.40;99.90;;;;;;5035850;28;20192;-79
2021/01/04 00:05:01;;;;;;;13.07;7.13;;;5.40;99.90;;;;;;5033013;28;20207;-78
2021/01/04 00:08:02;;;;;;;10.98;6.75;;;5.40;99.90;;;;;;5033140;28;20600;-78
2021/01/04 00:10:37;;;;;;;13.10;6.65;;;5.40;99.90;;;;;;5007700;28;20207;-78
2021/01/04 00:13:14;;;;;;;14.50;6.82;;;5.40;99.90;;;;;;5028701;28;20256;-79
2021/01/04 00:15:45;;;;;;;11.52;6.53;;;5.40;99.90;;;;;;5033351;28;20238;-78
2021/01/04 00:18:41;;;;;;;12.90;7.20;;;5.40;99.90;;;;;;5031551;28;20571;-78
2021/01/04 00:21:16;;;;;;;14.15;7.07;;;5.40;99.90;;;;;;5015631;28;20228;-79
2021/01/04 00:23:55;;;;;;;13.02;6.55;;;5.40;99.90;;;;;;5032406;28;20210;-79
2021/01/04 00:26:26;;;;;;;14.20;6.68;;;5.40;99.90;;;;;;5032806;28;20191;-79
2021/01/04 00:28:54;;;;;;;12.82;6.55;;;5.40;99.90;;;;;;5034074;28;20979;-79
2021/01/04 00:31:25;;;;;;;15.35;6.57;;;5.40;99.90;;;;;;5032532;28;20204;-79
2021/01/04 00:33:54;;;;;;;13.25;6.80;;;5.40;99.90;;;;;;5030043;28;20703;-78
2021/01/04 00:36:25;;;;;;;16.25;6.97;;;5.40;99.90;;;;;;5030857;28;20232;-79
2021/01/04 00:39:24;;;;;;;11.77;6.72;;;5.40;99.90;;;;;;5032789;28;20631;-79
2021/01/04 00:41:59;;;;;;;12.05;6.50;;;5.30;99.90;;;;;;5033065;28;20207;-80
2021/01/04 00:44:34;;;;;;;14.02;6.47;;;5.30;99.90;;;;;;5030095;28;20215;-80
2021/01/04 00:47:07;;;;;;;13.35;6.25;;;5.40;99.90;;;;;;5029806;28;20203;-77
2021/01/04 00:49:34;;;;;;;10.10;5.78;;;5.40;99.90;;;;;;5036701;28;20211;-78
2021/01/04 00:52:17;;;;;;;12.52;6.82;;;5.40;99.90;;;;;;5033685;28;20219;-79
2021/01/04 00:54:58;;;;;;;12.32;6.45;;;5.30;99.90;;;;;;5029770;28;20594;-79
2021/01/04 00:57:45;;;;;;;13.85;6.68;;;5.30;99.90;;;;;;5030203;28;20562;-78
2021/01/04 01:00:21;;;;;;;12.13;6.70;;;5.30;99.90;;;;;;5030792;28;20656;-78
2021/01/04 01:03:17;;;;;;;13.68;7.10;;;5.40;99.90;;;;;;5030176;28;20207;-78
2021/01/04 01:05:50;;;;;;;9.77;6.28;;;5.40;99.90;;;;;;5032355;28;20200;-79
2021/01/04 01:08:22;;;;;;;11.25;6.65;;;5.40;99.90;;;;;;5036223;28;20564;-78
2021/01/04 01:10:53;;;;;;;11.43;6.38;;;5.40;99.90;;;;;;5031681;28;20208;-78
2021/01/04 01:13:41;;;;;;;10.93;6.70;;;5.40;99.90;;;;;;5034397;28;20258;-79
2021/01/04 01:16:21;;;;;;;11.38;6.97;;;5.30;99.90;;;;;;5029264;28;20215;-80
2021/01/04 01:18:57;;;;;;;13.50;7.00;;;5.30;99.90;;;;;;5028253;28;20574;-79
2021/01/04 01:21:23;;;;;;;12.15;6.38;;;5.30;99.90;;;;;;5028317;28;20199;-78
2021/01/04 01:23:50;;;;;;;12.85;6.80;;;5.40;99.90;;;;;;5033012;28;20578;-79
2021/01/04 01:26:49;;;;;;;11.93;5.90;;;5.30;99.90;;;;;;5034496;28;20199;-78
2021/01/04 01:30:01;;;;;;;10.57;6.20;;;5.30;99.90;;;;;;5031689;28;20209;-78
2021/01/04 01:32:52;;;;;;;14.65;6.10;;;5.30;99.90;;;;;;5034785;28;20199;-79
2021/01/04 01:35:34;;;;;;;11.32;5.82;;;5.30;99.90;;;;;;4986406;28;20241;-79
2021/01/04 01:38:24;;;;;;;12.52;6.43;;;5.30;99.90;;;;;;5032919;28;20191;-79
2021/01/04 01:41:38;;;;;;;10.85;5.40;;;5.30;99.90;;;;;;5031883;28;20204;-78
2021/01/04 01:44:12;;;;;;;12.15;5.40;;;5.30;99.90;;;;;;4927893;29;20211;-78
2021/01/04 01:46:44;;;;;;;10.50;5.80;;;5.20;99.90;;;;;;5029595;28;20288;-79
2021/01/04 01:49:26;;;;;;;11.98;5.97;;;5.20;99.90;;;;;;5034793;28;20250;-79
2021/01/04 01:52:13;;;;;;;11.02;5.80;;;5.20;99.90;;;;;;5031974;28;21313;-79
2021/01/04 01:55:07;;;;;;;9.10;5.80;;;5.10;99.90;;;;;;5031805;28;20785;-78
2021/01/04 01:57:56;;;;;;;9.60;5.55;;;5.10;99.90;;;;;;5030259;28;20211;-78
2021/01/04 02:00:27;;;;;;;10.85;5.90;;;5.20;99.90;;;;;;5035449;28;20737;-80
2021/01/04 02:03:05;;;;;;;9.32;5.90;;;5.10;99.90;;;;;;5034399;28;20658;-80
2021/01/04 02:06:02;;;;;;;13.38;6.30;;;5.20;99.90;;;;;;5034013;28;20203;-77
2021/01/04 02:08:31;;;;;;;8.48;5.93;;;5.10;99.90;;;;;;5030634;28;20204;-79
2021/01/04 02:11:15;;;;;;;9.13;5.65;;;5.20;99.90;;;;;;5035220;28;20213;-79
2021/01/04 02:13:54;;;;;;;12.25;6.40;;;5.20;99.90;;;;;;5032878;28;20261;-78
2021/01/04 02:16:28;;;;;;;12.70;6.07;;;5.20;99.90;;;;;;5028979;28;20694;-77
2021/01/04 02:19:07;;;;;;;11.85;6.07;;;5.20;99.90;;;;;;5033045;28;20203;-78
2021/01/04 02:22:10;;;;;;;8.88;5.50;;;5.20;99.90;;;;;;5032756;28;20644;-79
2021/01/04 02:24:38;;;;;;;12.05;6.13;;;5.20;99.90;;;;;;5036177;28;20250;-79
2021/01/04 02:27:11;;;;;;;10.38;5.72;;;5.20;99.90;;;;;;5034488;28;20660;-78
2021/01/04 02:29:37;;;;;;;8.13;5.55;;;5.20;99.90;;;;;;5033655;28;20211;-77
2021/01/04 02:32:07;;;;;;;9.45;5.70;;;5.20;99.90;;;;;;5034482;28;20213;-80
2021/01/04 02:34:35;;;;;;;9.68;5.78;;;5.10;99.90;;;;;;5035826;28;20734;-79
2021/01/04 02:37:04;;;;;;;10.10;5.93;;;5.10;99.90;;;;;;5031485;28;20281;-79
2021/01/04 02:39:36;;;;;;;10.80;5.78;;;5.10;99.90;;;;;;5032918;28;20207;-79
2021/01/04 02:42:09;;;;;;;8.90;5.72;;;5.10;99.90;;;;;;5030889;28;20545;-78
2021/01/04 02:44:36;;;;;;;12.05;6.10;;;5.10;99.90;;;;;;5036528;28;20200;-78
2021/01/04 02:47:39;;;;;;;9.13;5.80;;;5.10;99.90;;;;;;5036466;28;20591;-79
2021/01/04 02:50:34;;;;;;;12.07;5.95;;;5.00;99.90;;;;;;5033487;28;20192;-78
2021/01/04 02:53:16;;;;;;;10.27;5.75;;;5.00;99.90;;;;;;5025538;28;20223;-80
2021/01/04 02:55:52;;;;;;;10.52;5.50;;;5.10;99.90;;;;;;5033110;28;20220;-79
2021/01/04 02:58:29;;;;;;;11.93;6.32;;;5.10;99.90;;;;;;5031550;28;20202;-79
2021/01/04 03:01:03;;;;;;;11.32;5.53;;;5.10;99.90;;;;;;5030476;28;20212;-79
2021/01/04 03:03:30;;;;;;;11.23;5.95;;;5.10;99.90;;;;;;5029898;28;20208;-78
2021/01/04 03:05:59;;;;;;;9.80;5.72;;;5.10;99.90;;;;;;5033029;28;20196;-79
2021/01/04 03:08:25;;;;;;;9.55;5.80;;;5.10;99.90;;;;;;5030666;28;20215;-79
2021/01/04 03:10:52;;;;;;;11.48;6.05;;;5.20;99.90;;;;;;5032748;28;20265;-80
2021/01/04 03:13:25;;;;;;;13.05;5.95;;;5.20;99.90;;;;;;5030771;28;20211;-79
2021/01/04 03:16:04;;;;;;;10.80;5.78;;;5.20;99.90;;;;;;5031059;28;20231;-78
2021/01/04 03:18:36;;;;;;;9.23;5.78;;;5.20;99.90;;;;;;5030815;28;20223;-79
2021/01/04 03:21:05;;;;;;;10.52;5.90;;;5.20;99.90;;;;;;5029581;28;20211;-79
2021/01/04 03:23:32;;;;;;;12.90;6.70;;;5.20;99.90;;;;;;5028379;28;20298;-79
2021/01/04 03:26:06;;;;;;;10.30;6.38;;;5.20;99.90;;;;;;5031619;28;20202;-78
2021/01/04 03:28:34;;;;;;;14.18;7.00;;;5.20;99.90;;;;;;5030044;28;20676;-78
2021/01/04 03:31:01;;;;;;;15.75;6.97;;;5.20;99.90;;;;;;5031932;28;20206;-79
2021/01/04 03:33:28;;;;;;;13.18;6.30;;;5.20;99.90;;;;;;5028969;28;20230;-79
2021/01/04 03:35:54;;;;;;;13.27;6.65;;;5.10;99.90;;;;;;5028970;28;21198;-80
2021/01/04 03:38:21;;;;;;;12.13;7.07;;;5.10;99.90;;;;;;5028870;28;20204;-79
2021/01/04 03:40:48;;;;;;;12.65;6.47;;;5.20;99.90;;;;;;5030562;28;20214;-79
2021/01/04 03:43:15;;;;;;;11.52;6.28;;;5.20;99.90;;;;;;5030581;28;20598;-78
2021/01/04 03:45:42;;;;;;;14.93;6.50;;;5.20;99.90;;;;;;5030764;28;20192;-79
2021/01/04 03:48:10;;;;;;;12.95;6.50;;;5.20;99.90;;;;;;5029950;28;20270;-79
2021/01/04 03:50:37;;;;;;;12.32;6.57;;;5.20;99.90;;;;;;5029925;28;20208;-77
2021/01/04 03:53:04;;;;;;;12.27;7.13;;;5.20;99.90;;;;;;5028318;28;20200;-79
2021/01/04 03:55:30;;;;;;;12.50;6.15;;;5.20;99.90;;;;;;5031436;28;20230;-78
2021/01/04 03:57:56;;;;;;;11.63;6.50;;;5.20;99.90;;;;;;5029401;28;20208;-79
2021/01/04 04:00:23;;;;;;;15.40;7.10;;;5.20;99.90;;;;;;5029446;28;20215;-79
2021/01/04 04:02:51;;;;;;;12.52;6.07;;;5.20;99.90;;;;;;5026637;28;20208;-79
2021/01/04 04:05:18;;;;;;;15.05;6.30;;;5.20;99.90;;;;;;5028224;28;20200;-79
2021/01/04 04:07:45;;;;;;;13.27;6.60;;;5.20;99.90;;;;;;5030097;28;20719;-79
2021/01/04 04:10:14;;;;;;;10.55;6.20;;;5.10;99.90;;;;;;5030362;28;20207;-78
2021/01/04 04:12:41;;;;;;;13.40;6.47;;;5.10;99.90;;;;;;5030135;28;20200;-77
2021/01/04 04:15:10;;;;;;;11.85;6.65;;;5.10;99.90;;;;;;5031262;28;20208;-79
2021/01/04 04:17:36;;;;;;;10.95;6.32;;;5.20;99.90;;;;;;5028527;28;20215;-79
2021/01/04 04:20:05;;;;;;;11.32;6.60;;;5.20;99.90;;;;;;5029399;28;20230;-78
2021/01/04 04:22:31;;;;;;;11.55;6.30;;;5.20;99.90;;;;;;5026346;28;20222;-80
2021/01/04 04:24:58;;;;;;;13.55;6.97;;;5.10;99.90;;;;;;5028294;28;20211;-79
2021/01/04 04:27:24;;;;;;;15.55;6.60;;;5.20;99.90;;;;;;5028519;28;20871;-79
2021/01/04 04:29:50;;;;;;;14.02;6.30;;;5.20;99.90;;;;;;5030796;28;20877;-79
2021/01/04 04:32:18;;;;;;;9.80;5.93;;;5.20;99.90;;;;;;5027110;28;20617;-79
2021/01/04 04:34:44;;;;;;;12.15;6.60;;;5.20;99.90;;;;;;5028944;28;20231;-78
2021/01/04 04:37:11;;;;;;;15.82;7.15;;;5.10;99.90;;;;;;5027865;28;20718;-78
2021/01/04 04:39:38;;;;;;;13.63;6.43;;;5.10;99.90;;;;;;5029665;28;20203;-77
2021/01/04 04:42:07;;;;;;;10.90;6.40;;;5.10;99.90;;;;;;5030223;28;20200;-79
2021/01/04 04:44:42;;;;;;;13.18;6.72;;;5.10;99.90;;;;;;5029158;28;20208;-80
2021/01/04 04:47:25;;;;;;;14.77;6.22;;;5.10;99.90;;;;;;5025390;28;20198;-79
2021/01/04 04:50:05;;;;;;;11.15;6.20;;;5.10;99.90;;;;;;5028919;28;20621;-77
2021/01/04 04:53:06;;;;;;;9.75;5.75;;;5.20;99.90;;;;;;5028504;28;20547;-79
2021/01/04 04:55:42;;;;;;;8.43;5.65;;;5.20;99.90;;;;;;5025270;28;20250;-79
2021/01/04 04:58:27;;;;;;;10.93;6.10;;;5.10;99.90;;;;;;5028812;28;20749;-79
2021/01/04 05:01:05;;;;;;;12.95;6.55;;;5.10;99.90;;;;;;5027021;28;20187;-78
2021/01/04 05:03:52;;;;;;;15.00;5.75;;;5.20;99.90;;;;;;5029440;28;20215;-79
2021/01/04 05:06:32;;;;;;;12.48;6.25;;;5.20;99.90;;;;;;5029810;28;20245;-78
2021/01/04 05:09:14;;;;;;;12.10;6.43;;;5.20;99.90;;;;;;5029095;28;20253;-79
2021/01/04 05:11:44;;;;;;;12.40;6.72;;;5.20;99.90;;;;;;5027015;28;20206;-79
2021/01/04 05:14:17;;;;;;;13.88;6.72;;;5.20;99.90;;;;;;5029555;28;20664;-79
2021/01/04 05:17:02;;;;;;;11.55;6.15;;;5.10;99.90;;;;;;5025476;28;20233;-79
2021/01/04 05:20:07;;;;;;;11.85;6.60;;;5.10;99.90;;;;;;5029708;28;20210;-79
2021/01/04 05:22:55;;;;;;;13.90;6.25;;;5.10;99.90;;;;;;5021487;28;20231;-79
2021/01/04 05:25:58;;;;;;;16.98;6.78;;;5.10;99.90;;;;;;5028423;28;20199;-79
2021/01/04 05:29:02;;;;;;;9.90;6.05;;;5.10;99.90;;;;;;5027082;28;20212;-81
2021/01/04 05:31:45;;;;;;;14.13;6.55;;;5.10;99.90;;;;;;5029249;28;20684;-79
2021/01/04 05:34:20;;;;;;;14.02;6.95;;;5.20;99.90;;;;;;5027555;28;20203;-80
2021/01/04 05:37:32;;;;;;;12.70;6.80;;;5.20;99.90;;;;;;5025790;28;20741;-80
2021/01/04 05:40:23;;;;;;;13.98;6.72;;;5.20;99.90;;;;;;5029373;28;20195;-81
2021/01/04 05:43:11;;;;;;;14.07;6.57;;;5.20;99.90;;;;;;5028656;28;20239;-79
2021/01/04 05:45:45;;;;;;;17.70;6.50;;;5.20;99.90;;;;;;5028994;28;20199;-79
2021/01/04 05:48:30;;;;;;;14.40;6.57;;;5.20;99.90;;;;;;5028031;28;20212;-80
2021/01/04 05:51:04;;;;;;;12.20;6.50;;;5.20;99.90;;;;;;5032180;28;20234;-79
2021/01/04 05:53:31;;;;;;;14.80;6.85;;;5.20;99.90;;;;;;5031788;28;20215;-80
2021/01/04 05:55:59;;;;;;;11.18;6.78;;;5.10;99.90;;;;;;5032733;28;20224;-80
2021/01/04 05:58:29;;;;;;;14.95;6.60;;;5.10;99.90;;;;;;5031349;28;20213;-80
2021/01/04 06:01:06;;;;;;;11.85;6.43;;;5.10;99.90;;;;;;5030521;28;20200;-80
2021/01/04 06:03:32;;;;;;;14.88;7.25;;;5.10;99.90;;;;;;5032987;28;20636;-81
2021/01/04 06:06:08;;;;;;;12.35;6.55;;;5.10;99.90;;;;;;5032838;28;20273;-79
2021/01/04 06:08:35;;;;;;;12.60;6.53;;;5.20;99.90;;;;;;5032791;28;20590;-81
2021/01/04 06:11:06;;;;;;;13.60;6.70;;;5.20;99.90;;;;;;5030117;28;20196;-80
2021/01/04 06:13:38;;;;;;;14.32;6.88;;;5.20;99.90;;;;;;5030111;28;20203;-79
2021/01/04 06:16:14;;;;;;;16.10;6.60;;;5.20;99.90;;;;;;5029498;28;20296;-80
2021/01/04 06:18:46;;;;;;;9.82;5.85;;;5.20;99.90;;;;;;5030405;28;20660;-79
2021/01/04 06:21:24;;;;;;;11.73;5.65;;;5.10;99.90;;;;;;5033117;28;20212;-79
2021/01/04 06:23:53;;;;;;;8.63;5.38;;;5.20;99.90;;;;;;5033065;28;20245;-80
2021/01/04 06:26:22;;;;;;;13.18;5.50;;;5.20;99.90;;;;;;5033239;28;20671;-80
2021/01/04 06:28:54;;;;;;;10.00;5.30;;;5.10;99.90;;;;;;5032694;28;20227;-80
2021/01/04 06:31:34;;;;;;;9.55;5.50;;;5.10;99.90;;;;;;5031902;28;20212;-81
2021/01/04 06:34:05;;;;;;;12.48;5.65;;;5.10;99.90;;;;;;5031430;28;20266;-78
2021/01/04 06:36:35;;;;;;;13.43;5.80;;;5.10;99.90;;;;;;5033462;28;20232;-81
2021/01/04 06:39:18;;;;;;;14.18;5.75;;;5.20;99.90;;;;;;5032254;28;20302;-81
2021/01/04 06:41:45;;;;;;;10.00;5.28;;;5.10;99.90;;;;;;5032778;28;20239;-78
2021/01/04 06:44:18;;;;;;;10.35;5.50;;;5.20;99.90;;;;;;5033798;28;20223;-79
2021/01/04 06:47:12;;;;;;;11.52;5.57;;;5.20;99.90;;;;;;5033774;28;21066;-80
2021/01/04 06:49:46;;;;;;;12.38;5.90;;;5.20;99.90;;;;;;5032100;28;20212;-82
2021/01/04 06:52:44;;;;;;;12.93;5.68;;;5.20;99.90;;;;;;5033198;28;20207;-82
2021/01/04 06:56:01;;;;;;;12.20;6.30;;;5.20;99.90;;;;;;5032355;28;20712;-80
2021/01/04 06:58:53;;;;;;;10.77;5.70;;;5.20;99.90;;;;;;5034614;28;20196;-81
2021/01/04 07:01:53;;;;;;;11.02;5.70;;;5.20;99.90;;;;;;5030415;28;20204;-81
2021/01/04 07:04:43;;;;;;;12.48;5.38;;;5.20;99.90;;;;;;5032522;28;20215;-79
2021/01/04 07:07:22;;;;;;;11.70;6.05;;;5.20;99.90;;;;;;5031667;28;20705;-80
2021/01/04 07:10:17;;;;;;;9.48;5.63;;;5.20;99.90;;;;;;5032344;28;20199;-80
2021/01/04 07:13:14;;;;;;;11.40;5.63;;;5.20;99.90;;;;;;5030799;28;20627;-80
2021/01/04 07:15:49;;;;;;;13.52;6.25;;;5.20;99.90;;;;;;5032853;28;21020;-79
2021/01/04 07:18:47;;;;;;;10.95;5.47;;;5.10;99.90;;;;;;5033685;28;20226;-79
2021/01/04 07:21:30;;;;;;;12.38;5.63;;;5.20;99.90;;;;;;5032557;28;20247;-79
2021/01/04 07:24:24;;;;;;;16.27;6.00;;;5.20;99.90;;;;;;5031853;28;20295;-79
2021/01/04 07:27:03;;;;;;;14.73;6.05;;;5.20;99.90;;;;;;5031127;28;20203;-79
2021/01/04 07:29:58;;;;;;;16.25;6.18;;;5.20;99.90;;;;;;5034449;28;20204;-79
2021/01/04 07:32:38;;;;;;;8.85;5.72;;;5.20;99.90;;;;;;5029419;28;20210;-80
2021/01/04 07:35:13;;;;;;;12.75;6.45;;;5.10;99.90;;;;;;5037017;28;20200;-78
2021/01/04 07:37:51;;;;;;;12.45;5.90;;;5.20;99.90;;;;;;5033647;28;20623;-79
2021/01/04 07:40:33;;;;;;;14.02;6.05;;;5.10;99.90;;;;;;5028706;28;20204;-78
2021/01/04 07:43:35;;;;;;;11.73;5.50;;;5.10;99.90;;;;;;5033348;28;20744;-78
2021/01/04 07:46:42;;;;;;;11.75;6.00;;;5.20;99.90;;;;;;5033560;28;20195;-80
2021/01/04 07:49:39;;;;;;;12.85;6.50;;;5.20;99.90;;;;;;5032317;28;20195;-77
2021/01/04 07:52:26;;;;;;;13.13;5.95;;;5.20;99.90;;;;;;5033004;28;20192;-78
2021/01/04 07:55:26;;;;;;;11.90;5.38;;;5.20;99.90;;;;;;5030287;28;20211;-78
2021/01/04 07:58:21;;;;;;;11.48;5.80;;;5.20;99.90;;;;;;5036142;28;20282;-81
2021/01/04 08:01:35;;;;;;;9.88;5.70;;;5.20;99.90;;;;;;5032320;28;20211;-79
2021/01/04 08:04:25;;;;;;;13.52;5.85;;;5.10;99.90;;;;;;5031570;28;20687;-81
2021/01/04 08:07:23;;;;;;;10.27;5.60;;;5.10;99.90;;;;;;5031086;28;20206;-81
2021/01/04 08:10:10;;;;;;;10.50;5.13;;;5.10;99.90;;;;;;5028365;28;20298;-81
2021/01/04 08:13:10;;;;;;;9.25;5.30;;;5.10;99.90;;;;;;5030625;28;20214;-80
2021/01/04 08:15:43;;;;;;;10.68;5.20;;;5.10;99.90;;;;;;5030906;28;20234;-80
2021/01/04 08:18:11;;;;;;;11.70;5.32;;;5.10;99.90;;;;;;5032120;28;20656;-80
2021/01/04 08:20:44;;;;;;;9.80;5.50;;;5.10;99.90;;;;;;5035395;28;20200;-81
2021/01/04 08:23:25;;;;;;;8.57;5.03;;;5.10;99.90;;;;;;5032441;28;20286;-80
2021/01/04 08:26:10;;;;;;;10.10;5.35;;;5.10;99.90;;;;;;5032422;28;20208;-80
2021/01/04 08:28:43;;;;;;;11.48;5.10;;;5.10;99.90;;;;;;5032412;28;20203;-85
2021/01/04 08:31:26;;;;;;;7.82;5.22;;;5.10;99.90;;;;;;5028280;28;20203;-76
2021/01/04 08:33:57;;;;;;;7.03;4.80;;;5.10;99.90;;;;;;5032685;28;20203;-77
2021/01/04 08:36:26;;;;;;;9.77;5.10;;;5.10;99.90;;;;;;5033270;28;20688;-76
2021/01/04 08:39:07;;;;;;;10.77;5.35;;;5.20;99.90;;;;;;5032677;28;20196;-77
2021/01/04 08:41:39;;;;;;;15.95;5.43;;;5.20;99.90;;;;;;5030002;28;20211;-76
2021/01/04 08:44:15;;;;;;;10.25;4.47;;;5.20;99.90;;;;;;5034857;28;20642;-77
2021/01/04 08:46:42;;;;;;;7.97;4.40;;;5.20;99.90;;;;;;5032082;28;20788;-77
2021/01/04 08:49:22;;;;;;;9.90;4.90;;;5.20;99.90;;;;;;5036578;28;20202;-77
2021/01/04 08:51:50;;;;;;;7.45;4.63;;;5.20;99.90;;;;;;5029324;28;20565;-77
2021/01/04 08:54:22;;;;;;;26.52;5.43;;;5.20;99.90;;;;;;5034256;28;20239;-77
2021/01/04 08:56:51;;;;;;;7.80;4.40;;;5.20;99.90;;;;;;5035123;28;20226;-77
2021/01/04 08:59:20;;;;;;;10.50;4.85;;;5.20;99.90;;;;;;5038613;28;20306;-76
2021/01/04 09:01:51;;;;;;;10.00;4.57;;;5.20;99.90;;;;;;5031648;28;20400;-77
2021/01/04 09:04:30;;;;;;;9.65;4.35;;;5.20;99.90;;;;;;5037949;28;20208;-76
2021/01/04 09:07:13;;;;;;;8.77;5.18;;;5.20;99.90;;;;;;5033467;28;20467;-76
2021/01/04 09:09:48;;;;;;;11.35;5.18;;;5.20;99.90;;;;;;5032346;28;20250;-77
2021/01/04 09:12:30;;;;;;;12.10;4.70;;;5.20;99.90;;;;;;5034099;28;20289;-76
2021/01/04 09:14:59;;;;;;;9.23;5.05;;;5.20;99.90;;;;;;5035864;28;20563;-75
2021/01/04 09:17:37;;;;;;;8.23;4.85;;;5.20;99.90;;;;;;5029241;28;20296;-78
2021/01/04 09:20:11;;;;;;;8.27;4.53;;;5.20;99.90;;;;;;5029624;28;20257;-76
2021/01/04 09:22:37;;;;;;;11.55;5.18;;;5.20;99.90;;;;;;5028514;28;20203;-76
2021/01/04 09:25:18;;;;;;;8.13;4.82;;;5.20;99.90;;;;;;5033371;28;20222;-77
2021/01/04 09:27:48;;;;;;;10.10;4.65;;;5.20;99.90;;;;;;5030256;28;20211;-76
2021/01/04 09:30:20;;;;;;;7.47;4.95;;;5.10;99.90;;;;;;5030597;28;20196;-76
2021/01/04 09:32:47;;;;;;;10.00;4.82;;;5.10;99.90;;;;;;5031250;28;20200;-76
2021/01/04 09:35:18;;;;;;;12.20;5.20;;;5.10;99.90;;;;;;5033053;28;20680;-75
2021/01/04 09:37:45;;;;;;;7.38;4.53;;;5.10;99.90;;;;;;5032694;28;20584;-75
2021/01/04 09:40:18;;;;;;;8.52;5.07;;;5.20;99.90;;;;;;5034510;28;20231;-75
2021/01/04 09:42:45;;;;;;;10.20;5.00;;;5.10;99.90;;;;;;5027391;28;20203;-75
2021/01/04 09:45:15;;;;;;;8.85;4.85;;;5.10;99.90;;;;;;5038092;28;20567;-75
2021/01/04 09:47:47;;;;;;;13.25;5.00;;;5.20;99.90;;;;;;5034263;28;20277;-75
2021/01/04 09:50:19;;;;;;;8.88;4.90;;;5.10;99.90;;;;;;5035401;28;20668;-75
2021/01/04 09:52:49;;;;;;;11.35;5.03;;;5.10;99.90;;;;;;5029428;28;20207;-76
2021/01/04 09:55:25;;;;;;;9.80;4.97;;;5.20;99.90;;;;;;5036453;28;20191;-75
2021/01/04 09:57:51;;;;;;;9.38;5.00;;;5.20;99.90;;;;;;5037478;28;20213;-76
2021/01/04 10:00:22;;;;;;;8.40;4.20;;;5.20;99.90;;;;;;5038887;28;20215;-76
2021/01/04 10:02:58;;;;;;;8.15;4.18;;;5.20;99.90;;;;;;5027339;28;20207;-76
2021/01/04 10:05:33;;;;;;;9.65;4.72;;;5.20;99.90;;;;;;5026918;28;20195;-75
2021/01/04 10:08:00;;;;;;;6.38;4.15;;;5.20;99.90;;;;;;5028786;28;20203;-76
2021/01/04 10:10:27;;;;;;;7.35;4.43;;;5.20;99.90;;;;;;5030285;28;20660;-78
2021/01/04 10:12:53;;;;;;;14.15;4.32;;;5.20;99.90;;;;;;5023920;28;20699;-76
2021/01/04 10:15:25;;;;;;;6.80;4.25;;;5.20;99.90;;;;;;5029403;28;20679;-76
2021/01/04 10:18:04;;;;;;;9.50;4.55;;;5.20;99.90;;;;;;5030231;28;20207;-76
2021/01/04 10:20:37;;;;;;;9.90;4.38;;;5.20;99.90;;;;;;5028522;28;20204;-77
2021/01/04 10:23:05;;;;;;;11.00;3.95;;;5.30;99.90;;;;;;5029976;28;20202;-78
2021/01/04 10:25:37;;;;;;;6.28;4.03;;;5.30;99.90;;;;;;5029950;28;20196;-78
2021/01/04 10:28:04;;;;;;;9.30;4.40;;;5.30;99.90;;;;;;5030060;28;20565;-77
2021/01/04 10:30:31;;;;;;;6.70;4.00;;;5.20;99.90;;;;;;5029855;28;20192;-75
2021/01/04 10:33:09;;;;;;;5.63;3.97;;;5.20;99.90;;;;;;5030472;28;20215;-77
2021/01/04 10:35:36;;;;;;;7.88;3.95;;;5.20;99.90;;;;;;5028217;28;20214;-77
2021/01/04 10:38:08;;;;;;;6.70;3.60;;;5.20;99.90;;;;;;5033790;28;20228;-76
2021/01/04 10:40:44;;;;;;;7.80;3.75;;;5.20;99.90;;;;;;5036236;28;20192;-76
2021/01/04 10:43:11;;;;;;;6.90;3.60;;;5.20;99.90;;;;;;5032458;28;20200;-78
2021/01/04 10:45:40;;;;;;;6.25;3.60;;;5.20;99.90;;;;;;5033840;28;20743;-78
2021/01/04 10:48:13;;;;;;;7.72;3.53;;;5.20;99.90;;;;;;5032288;28;20200;-76
2021/01/04 10:50:41;;;;;;;5.25;3.05;;;5.20;99.90;;;;;;5033257;28;20215;-76
2021/01/04 10:53:12;;;;;;;6.60;3.40;;;5.10;99.90;;;;;;5036390;28;20222;-77
2021/01/04 10:55:51;;;;;;;5.82;3.70;;;5.10;99.90;;;;;;5040692;28;20234;-76
2021/01/04 10:58:23;;;;;;;7.05;3.83;;;5.10;99.90;;;;;;5033939;28;20196;-76
2021/01/04 11:00:56;;;;;;;5.35;3.40;;;5.10;99.90;;;;;;5033298;28;20255;-76
2021/01/04 11:03:23;;;;;;;7.80;3.65;;;5.10;99.90;;;;;;5032964;28;20207;-77
2021/01/04 11:05:50;;;;;;;7.93;3.58;;;5.10;99.90;;;;;;5033803;28;20561;-76
2021/01/04 11:08:28;;;;;;;4.90;3.20;;;5.00;99.90;;;;;;5038525;28;20566;-76
2021/01/04 11:11:00;;;;;;;8.60;3.90;;;5.00;99.90;;;;;;5028972;28;20613;-75
2021/01/04 11:13:29;;;;;;;5.40;3.72;;;5.00;99.90;;;;;;5031524;28;20688;-75
2021/01/04 11:16:07;;;;;;;8.82;3.45;;;5.00;99.90;;;;;;5032689;28;20215;-76
2021/01/04 11:18:33;;;;;;;12.50;3.70;;;5.00;99.90;;;;;;5031254;28;20687;-76
2021/01/04 11:20:59;;;;;;;4.90;3.25;;;5.00;99.90;;;;;;5032636;28;20192;-75
2021/01/04 11:23:26;;;;;;;7.28;3.38;;;5.00;99.90;;;;;;5030660;28;20267;-76
2021/01/04 11:25:52;;;;;;;5.82;3.20;;;5.10;99.90;;;;;;5030613;28;20200;-75
2021/01/04 11:28:19;;;;;;;5.70;3.20;;;5.10;99.90;;;;;;5026367;28;20211;-76
2021/01/04 11:30:46;;;;;;;7.38;3.10;;;5.10;99.90;;;;;;5032719;28;20204;-75
2021/01/04 11:33:15;;;;;;;9.80;3.30;;;5.10;99.90;;;;;;5030629;28;20230;-75
2021/01/04 11:35:42;;;;;;;6.25;3.15;;;5.10;99.90;;;;;;5030264;28;20573;-75
2021/01/04 11:38:08;;;;;;;7.80;3.08;;;5.10;99.90;;;;;;5030166;28;20563;-75
2021/01/04 11:40:36;;;;;;;4.15;3.08;;;5.10;99.90;;;;;;5032536;28;20192;-76
2021/01/04 11:43:03;;;;;;;4.07;2.92;;;5.10;99.90;;;;;;5029726;28;20279;-77
2021/01/04 11:45:30;;;;;;;4.90;2.80;;;5.10;99.90;;;;;;5031007;28;20576;-76
2021/01/04 11:47:57;;;;;;;5.75;3.00;;;5.10;99.90;;;;;;5029233;28;20210;-75
2021/01/04 11:50:23;;;;;;;5.32;3.13;;;5.00;99.90;;;;;;5030620;28;20215;-78
2021/01/04 11:52:50;;;;;;;4.90;2.78;;;5.10;99.90;;;;;;5030271;28;20559;-75
2021/01/04 11:55:17;;;;;;;5.93;2.83;;;5.10;99.90;;;;;;5031776;28;20196;-76
2021/01/04 11:57:43;;;;;;;4.68;2.95;;;5.10;99.90;;;;;;5031343;28;20203;-77
2021/01/04 12:00:11;;;;;;;6.00;3.33;;;5.10;99.90;;;;;;5030436;28;20269;-76
2021/01/04 12:02:40;;;;;;;6.05;3.03;;;5.10;99.90;;;;;;5031625;28;20199;-76
2021/01/04 12:05:08;;;;;;;5.25;3.05;;;5.10;99.90;;;;;;5028740;28;20202;-76
2021/01/04 12:07:34;;;;;;;8.52;2.70;;;5.10;99.90;;;;;;5031092;28;20196;-77
2021/01/04 12:10:01;;;;;;;8.07;3.15;;;5.10;99.90;;;;;;5031147;28;20204;-77
2021/01/04 12:12:28;;;;;;;4.03;2.92;;;5.20;99.90;;;;;;5030294;28;20554;-76
2021/01/04 12:14:54;;;;;;;6.30;3.30;;;5.20;99.90;;;;;;5031395;28;20287;-77
2021/01/04 12:17:21;;;;;;;5.07;2.90;;;5.20;99.90;;;;;;5028094;28;20219;-76
2021/01/04 12:19:48;;;;;;;6.95;2.67;;;5.20;99.90;;;;;;5031380;28;20638;-76
2021/01/04 12:22:15;;;;;;;5.97;3.05;;;5.20;99.90;;;;;;5029105;28;20208;-76
2021/01/04 12:24:45;;;;;;;4.47;2.63;;;5.20;99.90;;;;;;5030621;28;20210;-76
2021/01/04 12:27:12;;;;;;;4.93;2.50;;;5.20;99.90;;;;;;5029459;28;20207;-77
2021/01/04 12:29:42;;;;;;;4.40;2.30;;;5.10;99.90;;;;;;5030629;28;20287;-77
2021/01/04 12:32:09;;;;;;;2.97;2.15;;;5.10;99.90;;;;;;5024689;28;20207;-78
2021/01/04 12:34:35;;;;;;;5.95;2.80;;;5.10;99.90;;;;;;5031790;28;20188;-77
2021/01/04 12:37:03;;;;;;;4.20;2.67;;;5.00;99.90;;;;;;5028071;28;20219;-77
2021/01/04 12:39:29;;;;;;;7.45;2.95;;;5.00;99.90;;;;;;5030316;28;20211;-76
2021/01/04 12:41:55;;;;;;;6.25;3.00;;;5.00;99.90;;;;;;5026536;28;20209;-76
2021/01/04 12:44:22;;;;;;;3.58;2.75;;;5.00;99.90;;;;;;5027320;28;20204;-76
2021/01/04 12:46:50;;;;;;;3.72;2.50;;;5.00;99.90;;;;;;5028308;28;20679;-76
2021/01/04 12:49:19;;;;;;;7.57;2.72;;;5.00;99.90;;;;;;5025291;28;20207;-77
2021/01/04 12:51:46;;;;;;;7.57;3.05;;;5.00;99.90;;;;;;5029169;28;20204;-75
2021/01/04 12:54:14;;;;;;;6.55;2.60;;;5.00;99.90;;;;;;5030984;28;20565;-77
2021/01/04 12:56:44;;;;;;;7.20;2.83;;;4.90;99.90;;;;;;5029770;28;20239;-76
2021/01/04 12:59:10;;;;;;;6.00;2.83;;;4.90;99.90;;;;;;5029190;28;20279;-77
2021/01/04 13:01:57;;;;;;;3.83;2.63;;;4.90;99.90;;;;;;5029945;28;20208;-78
2021/01/04 13:04:44;;;;;;;4.38;2.65;;;4.90;99.90;;;;;;5026357;28;20664;-77
2021/01/04 13:07:12;;;;;;;5.28;2.50;;;4.90;99.90;;;;;;5029013;28;20270;-75
2021/01/04 13:09:40;;;;;;;4.55;2.42;;;4.90;99.90;;;;;;5030913;28;20206;-76
2021/01/04 13:12:08;;;;;;;5.65;2.80;;;4.90;99.90;;;;;;5029879;28;20222;-76
2021/01/04 13:14:35;;;;;;;9.85;2.38;;;4.90;99.90;;;;;;5029558;28;20192;-76
2021/01/04 13:17:01;;;;;;;3.35;2.45;;;4.90;99.90;;;;;;5031002;28;20223;-76
2021/01/04 13:19:30;;;;;;;3.97;2.40;;;4.90;99.90;;;;;;5031104;28;20206;-77
2021/01/04 13:21:57;;;;;;;4.65;2.50;;;4.90;99.90;;;;;;5031513;28;20204;-76
2021/01/04 13:24:23;;;;;;;3.92;2.40;;;4.90;99.90;;;;;;5031166;28;20225;-77
2021/01/04 13:26:52;;;;;;;4.03;2.65;;;4.90;99.90;;;;;;5031850;28;20196;-75
2021/01/04 13:29:22;;;;;;;4.13;2.50;;;4.80;99.90;;;;;;5037354;28;20200;-77
2021/01/04 13:31:49;;;;;;;5.32;2.47;;;4.80;99.90;;;;;;5032968;28;20192;-77
2021/01/04 13:34:15;;;;;;;7.72;2.83;;;4.80;99.90;;;;;;5034691;28;20676;-78